createdAt,value
2022-12-24T00:00:06.157Z,98820.22
2022-12-24T00:02:34.561Z,98821.19
2022-12-24T00:05:02.456Z,98816.72
2022-12-24T00:07:30.257Z,98818.53
2022-12-24T00:09:57.937Z,98830.03
2022-12-24T00:12:25.680Z,98833.69
2022-12-24T00:14:54.052Z,98838.03
2022-12-24T00:17:21.795Z,98840.69
2022-12-24T00:19:49.549Z,98845.28
2022-12-24T00:22:17.309Z,98848.47
2022-12-24T00:24:44.970Z,98856.66
2022-12-24T00:27:13.238Z,98863.56
2022-12-24T00:29:41.107Z,98869.19
2022-12-24T00:32:10.425Z,98860.22
2022-12-24T00:34:38.144Z,98874.75
2022-12-24T00:37:06.423Z,98869.69
2022-12-24T00:39:34.359Z,98889.31
2022-12-24T00:42:02.138Z,98889.91
2022-12-24T00:44:30.020Z,98902.28
2022-12-24T00:46:57.704Z,98897.84
2022-12-24T00:49:25.338Z,98896.44
2022-12-24T00:51:53.671Z,98904.44
2022-12-24T00:54:21.382Z,98897.00
2022-12-24T00:56:49.018Z,98897.41
2022-12-24T00:59:17.203Z,98905.94
2022-12-24T01:01:44.924Z,98912.66
2022-12-24T01:04:30.594Z,98914.00
2022-12-24T01:06:58.445Z,98917.91
2022-12-24T01:09:26.115Z,98929.94
2022-12-24T01:11:53.857Z,98938.63
2022-12-24T01:14:21.826Z,98941.28
2022-12-24T01:16:49.840Z,98931.47
2022-12-24T01:19:17.712Z,98946.59
2022-12-24T01:21:45.335Z,98943.94
2022-12-24T01:24:13.111Z,98941.16
2022-12-24T01:26:40.760Z,98962.44
2022-12-24T01:29:08.706Z,98962.59
2022-12-24T01:31:36.648Z,98959.09
2022-12-24T01:34:04.352Z,98980.56
2022-12-24T01:36:31.940Z,98967.25
2022-12-24T01:38:59.538Z,98980.56
2022-12-24T01:41:45.432Z,98983.22
2022-12-24T01:44:13.247Z,98990.22
2022-12-24T01:46:40.868Z,98983.09
2022-12-24T01:49:08.617Z,98982.91
2022-12-24T01:51:36.909Z,98981.09
2022-12-24T01:54:04.577Z,98985.56
2022-12-24T01:56:32.420Z,98982.91
2022-12-24T01:59:00.032Z,98991.88
2022-12-24T02:01:27.688Z,98989.38
2022-12-24T02:03:55.921Z,98987.69
2022-12-24T02:06:24.081Z,98985.34
2022-12-24T02:08:52.112Z,98992.66
2022-12-24T02:11:19.747Z,99005.09
2022-12-24T02:13:47.344Z,99010.44
2022-12-24T02:16:15.020Z,99013.53
2022-12-24T02:18:43.072Z,99015.50
2022-12-24T02:21:10.918Z,99019.31
2022-12-24T02:23:38.544Z,99018.31
2022-12-24T02:26:06.661Z,99022.78
2022-12-24T02:28:34.281Z,99017.31
2022-12-24T02:31:02.583Z,99021.81
2022-12-24T02:33:30.544Z,99032.47
2022-12-24T02:35:58.164Z,99039.75
2022-12-24T02:38:25.932Z,99052.25
2022-12-24T02:40:53.565Z,99036.28
2022-12-24T02:43:21.558Z,99057.56
2022-12-24T02:45:53.707Z,99048.03
2022-12-24T02:48:24.591Z,99060.81
2022-12-24T02:50:52.195Z,99059.56
2022-12-24T02:53:19.789Z,99062.38
2022-12-24T02:55:47.813Z,99074.97
2022-12-24T02:58:15.613Z,99069.94
2022-12-24T03:00:43.295Z,99076.38
2022-12-24T03:03:10.965Z,99074.69
2022-12-24T03:05:38.840Z,99076.66
2022-12-24T03:08:07.254Z,99079.34
2022-12-24T03:10:35.111Z,99067.00
2022-12-24T03:13:02.772Z,99085.63
2022-12-24T03:15:30.397Z,99078.91
2022-12-24T03:17:58.131Z,99088.31
2022-12-24T03:20:25.743Z,99096.72
2022-12-24T03:22:53.355Z,99091.53
2022-12-24T03:25:21.005Z,99083.84
2022-12-24T03:27:48.609Z,99086.06
2022-12-24T03:30:18.286Z,99094.91
2022-12-24T03:32:46.303Z,99093.22
2022-12-24T03:35:14.481Z,99097.69
2022-12-24T03:37:42.066Z,99097.69
2022-12-24T03:40:09.738Z,99101.91
2022-12-24T03:42:37.311Z,99107.09
2022-12-24T03:45:05.320Z,99114.78
2022-12-24T03:47:33.143Z,99111.88
2022-12-24T03:50:00.749Z,99107.91
2022-12-24T03:52:28.453Z,99115.22
2022-12-24T03:54:56.162Z,99111.97
2022-12-24T03:57:24.150Z,99116.03
2022-12-24T03:59:51.897Z,99128.22
2022-12-24T04:02:19.634Z,99127.94
2022-12-24T04:04:47.282Z,99130.31
2022-12-24T04:07:14.877Z,99136.34
2022-12-24T04:09:42.895Z,99141.38
2022-12-24T04:12:12.252Z,99126.09
2022-12-24T04:14:39.854Z,99132.25
2022-12-24T04:17:07.487Z,99133.94
2022-12-24T04:19:35.096Z,99132.13
2022-12-24T04:22:03.074Z,99126.81
2022-12-24T04:24:30.870Z,99138.28
2022-12-24T04:26:58.471Z,99142.91
2022-12-24T04:29:26.110Z,99145.56
2022-12-24T04:31:53.796Z,99147.56
2022-12-24T04:34:22.316Z,99145.00
2022-12-24T04:36:49.950Z,99156.53
2022-12-24T04:39:17.563Z,99149.34
2022-12-24T04:41:45.200Z,99153.69
2022-12-24T04:44:12.808Z,99150.91
2022-12-24T04:46:41.618Z,99149.09
2022-12-24T04:49:09.223Z,99150.03
2022-12-24T04:51:36.786Z,99161.56
2022-12-24T04:54:04.443Z,99159.03
2022-12-24T04:56:32.581Z,99170.53
2022-12-24T04:59:00.225Z,99154.53
2022-12-24T05:01:28.235Z,99148.38
2022-12-24T05:03:55.911Z,99158.19
2022-12-24T05:06:23.494Z,99156.34
2022-12-24T05:08:51.134Z,99155.53
2022-12-24T05:11:19.132Z,99162.53
2022-12-24T05:13:48.109Z,99161.56
2022-12-24T05:16:16.057Z,99162.41
2022-12-24T05:18:43.721Z,99162.41
2022-12-24T05:21:11.365Z,99156.22
2022-12-24T05:23:57.012Z,99159.88
2022-12-24T05:26:24.870Z,99160.69
2022-12-24T05:28:52.458Z,99171.34
2022-12-24T05:31:20.101Z,99169.66
2022-12-24T05:33:47.729Z,99179.50
2022-12-24T05:36:15.781Z,99181.31
2022-12-24T05:38:43.620Z,99182.28
2022-12-24T05:41:11.236Z,99176.97
2022-12-24T05:43:38.841Z,99171.34
2022-12-24T05:46:06.543Z,99177.22
2022-12-24T05:48:34.529Z,99175.41
2022-12-24T05:51:02.420Z,99188.59
2022-12-24T05:53:30.094Z,99184.81
2022-12-24T05:55:57.691Z,99192.66
2022-12-24T05:58:25.319Z,99197.00
2022-12-24T06:00:53.712Z,99195.88
2022-12-24T06:03:21.754Z,99194.88
2022-12-24T06:05:49.353Z,99199.09
2022-12-24T06:08:17.004Z,99199.09
2022-12-24T06:10:44.608Z,99193.75
2022-12-24T06:13:12.599Z,99203.59
2022-12-24T06:15:40.266Z,99202.59
2022-12-24T06:18:07.867Z,99199.09
2022-12-24T06:20:35.546Z,99194.63
2022-12-24T06:23:03.603Z,99212.28
2022-12-24T06:25:31.586Z,99206.94
2022-12-24T06:27:59.350Z,99204.28
2022-12-24T06:30:27.016Z,99217.59
2022-12-24T06:32:54.630Z,99210.59
2022-12-24T06:35:22.305Z,99215.94
2022-12-24T06:37:50.184Z,99218.72
2022-12-24T06:40:17.830Z,99227.69
2022-12-24T06:42:45.408Z,99233.03
2022-12-24T06:45:13.433Z,99226.84
2022-12-24T06:47:41.008Z,99232.16
2022-12-24T06:50:08.982Z,99233.03
2022-12-24T06:52:36.861Z,99230.38
2022-12-24T06:55:04.459Z,99239.19
2022-12-24T06:57:32.510Z,99245.34
2022-12-24T07:00:00.205Z,99262.19
2022-12-24T07:02:29.651Z,99259.53
2022-12-24T07:04:57.520Z,99262.19
2022-12-24T07:07:25.589Z,99269.31
2022-12-24T07:09:53.209Z,99276.47
2022-12-24T07:12:20.855Z,99275.50
2022-12-24T07:14:48.826Z,99271.84
2022-12-24T07:17:17.024Z,99274.53
2022-12-24T07:19:44.810Z,99282.50
2022-12-24T07:22:15.771Z,99284.31
2022-12-24T07:24:43.639Z,99278.00
2022-12-24T07:27:11.614Z,99285.00
2022-12-24T07:29:40.816Z,99288.53
2022-12-24T07:32:08.504Z,99286.84
2022-12-24T07:34:36.124Z,99282.34
2022-12-24T07:37:03.801Z,99293.00
2022-12-24T07:39:31.633Z,99300.16
2022-12-24T07:41:59.290Z,99296.53
2022-12-24T07:44:26.987Z,99307.31
2022-12-24T07:46:54.669Z,99305.50
2022-12-24T07:49:22.350Z,99313.50
2022-12-24T07:51:50.421Z,99303.81
2022-12-24T07:54:18.191Z,99298.34
2022-12-24T07:56:45.838Z,99302.84
2022-12-24T07:59:13.499Z,99303.81
2022-12-24T08:01:41.306Z,99307.19
2022-12-24T08:04:09.573Z,99314.31
2022-12-24T08:06:37.564Z,99320.50
2022-12-24T08:09:05.158Z,99325.81
2022-12-24T08:11:32.799Z,99313.38
2022-12-24T08:14:00.474Z,99333.81
2022-12-24T08:16:28.603Z,99345.16
2022-12-24T08:18:56.613Z,99346.84
2022-12-24T08:21:24.315Z,99353.84
2022-12-24T08:23:51.908Z,99353.84
2022-12-24T08:26:19.536Z,99356.38
2022-12-24T08:28:47.575Z,99358.91
2022-12-24T08:31:16.357Z,99364.25
2022-12-24T08:33:44.432Z,99372.25
2022-12-24T08:36:12.169Z,99365.94
2022-12-24T08:38:39.869Z,99381.63
2022-12-24T08:41:07.876Z,99374.34
2022-12-24T08:43:35.829Z,99393.69
2022-12-24T08:46:03.502Z,99386.69
2022-12-24T08:48:31.275Z,99401.69
2022-12-24T08:50:58.935Z,99400.00
2022-12-24T08:53:26.595Z,99400.00
2022-12-24T08:55:57.261Z,99401.00
2022-12-24T08:58:24.946Z,99399.16
2022-12-24T09:00:52.630Z,99410.66
2022-12-24T09:03:27.104Z,99402.69
2022-12-24T09:05:56.310Z,99415.88
2022-12-24T09:08:24.005Z,99423.72
2022-12-24T09:10:51.676Z,99423.56
2022-12-24T09:13:19.377Z,99426.13
2022-12-24T09:15:47.043Z,99436.47
2022-12-24T09:18:14.998Z,99431.84
2022-12-24T09:20:46.729Z,99437.91
2022-12-24T09:23:14.677Z,99434.25
2022-12-24T09:25:42.493Z,99436.91
2022-12-24T09:28:10.351Z,99443.94
2022-12-24T09:30:38.641Z,99459.78
2022-12-24T09:33:06.359Z,99462.88
2022-12-24T09:35:34.604Z,99455.56
2022-12-24T09:38:04.096Z,99472.00
2022-12-24T09:40:31.805Z,99464.56
2022-12-24T09:43:00.122Z,99475.81
2022-12-24T09:45:27.916Z,99474.56
2022-12-24T09:47:55.717Z,99481.56
2022-12-24T09:50:23.451Z,99481.47
2022-12-24T09:52:51.116Z,99478.50
2022-12-24T09:55:19.379Z,99481.91
2022-12-24T09:57:47.233Z,99478.81
2022-12-24T10:00:15.392Z,99488.06
2022-12-24T10:02:43.387Z,99490.44
2022-12-24T10:05:12.278Z,99510.53
2022-12-24T10:07:40.489Z,99493.53
2022-12-24T10:10:08.557Z,99504.91
2022-12-24T10:12:36.397Z,99498.03
2022-12-24T10:15:04.435Z,99504.34
2022-12-24T10:17:32.126Z,99500.13
2022-12-24T10:20:00.672Z,99500.84
2022-12-24T10:22:28.904Z,99500.56
2022-12-24T10:24:56.701Z,99501.84
2022-12-24T10:27:24.488Z,99502.66
2022-12-24T10:29:52.158Z,99504.63
2022-12-24T10:32:20.438Z,99509.38
2022-12-24T10:34:48.381Z,99517.13
2022-12-24T10:37:16.123Z,99511.50
2022-12-24T10:39:43.832Z,99515.84
2022-12-24T10:42:11.744Z,99513.91
2022-12-24T10:44:40.875Z,99515.28
2022-12-24T10:47:08.590Z,99505.16
2022-12-24T10:49:36.463Z,99507.38
2022-12-24T10:52:04.164Z,99505.97
2022-12-24T10:54:39.383Z,99513.97
2022-12-24T10:57:07.747Z,99502.88
2022-12-24T10:59:35.460Z,99504.72
2022-12-24T11:02:03.408Z,99500.94
2022-12-24T11:04:31.292Z,99494.63
2022-12-24T11:06:59.447Z,99503.47
2022-12-24T11:09:27.695Z,99494.06
2022-12-24T11:11:55.494Z,99490.31
2022-12-24T11:14:23.392Z,99490.50
2022-12-24T11:16:51.302Z,99496.34
2022-12-24T11:19:19.011Z,99492.72
2022-12-24T11:21:47.647Z,99499.31
2022-12-24T11:24:15.592Z,99496.28
2022-12-24T11:26:43.490Z,99487.03
2022-12-24T11:29:11.784Z,99490.94
2022-12-24T11:31:39.944Z,99489.31
2022-12-24T11:34:08.152Z,99485.72
2022-12-24T11:36:35.990Z,99488.00
2022-12-24T11:39:03.942Z,99484.25
2022-12-24T11:41:31.988Z,99489.34
2022-12-24T11:43:59.759Z,99487.56
2022-12-24T11:46:28.141Z,99490.44
2022-12-24T11:48:56.051Z,99485.34
2022-12-24T11:51:24.010Z,99487.63
2022-12-24T11:53:52.285Z,99493.72
2022-12-24T11:56:19.984Z,99492.06
2022-12-24T11:58:48.351Z,99497.97
2022-12-24T12:01:16.364Z,99495.16
2022-12-24T12:03:44.219Z,99501.81
2022-12-24T12:06:12.110Z,99508.53
2022-12-24T12:08:40.126Z,99499.81
2022-12-24T12:11:08.555Z,99515.84
2022-12-24T12:13:38.268Z,99511.06
2022-12-24T12:16:06.139Z,99512.06
2022-12-24T12:18:33.937Z,99522.03
2022-12-24T12:21:02.209Z,99522.47
2022-12-24T12:23:30.787Z,99523.97
2022-12-24T12:25:58.747Z,99524.53
2022-12-24T12:28:26.496Z,99518.38
2022-12-24T12:30:54.493Z,99528.38
2022-12-24T12:33:22.428Z,99532.84
2022-12-24T12:35:52.545Z,99535.50
2022-12-24T12:38:20.564Z,99531.44
2022-12-24T12:40:48.378Z,99537.88
2022-12-24T12:43:16.308Z,99540.69
2022-12-24T12:45:44.214Z,99543.78
2022-12-24T12:48:12.453Z,99536.38
2022-12-24T12:50:40.418Z,99530.91
2022-12-24T12:53:08.192Z,99539.72
2022-12-24T12:55:36.011Z,99547.34
2022-12-24T12:58:04.336Z,99552.38
2022-12-24T13:00:32.735Z,99551.53
2022-12-24T13:03:00.664Z,99546.47
2022-12-24T13:05:28.659Z,99550.13
2022-12-24T13:07:56.548Z,99559.53
2022-12-24T13:10:24.293Z,99562.06
2022-12-24T13:12:52.629Z,99565.16
2022-12-24T13:15:20.441Z,99570.94
2022-12-24T13:17:48.385Z,99574.72
2022-12-24T13:20:16.138Z,99574.84
2022-12-24T13:22:44.242Z,99583.84
2022-12-24T13:25:12.849Z,99588.88
2022-12-24T13:27:40.597Z,99574.00
2022-12-24T13:30:10.225Z,99577.78
2022-12-24T13:32:38.275Z,99593.81
2022-12-24T13:35:05.999Z,99586.09
2022-12-24T13:37:34.258Z,99585.25
2022-12-24T13:40:02.125Z,99588.59
2022-12-24T13:42:30.500Z,99589.16
2022-12-24T13:44:58.383Z,99588.75
2022-12-24T13:47:32.225Z,99588.06
2022-12-24T13:50:01.036Z,99586.94
2022-12-24T13:52:28.883Z,99593.09
2022-12-24T13:54:56.609Z,99590.44
2022-12-24T13:57:24.455Z,99586.38
2022-12-24T13:59:52.336Z,99594.38
2022-12-24T14:02:20.814Z,99594.22
2022-12-24T14:04:49.177Z,99593.53
2022-12-24T14:07:16.940Z,99590.00
2022-12-24T14:09:44.889Z,99599.84
2022-12-24T14:12:16.399Z,99595.50
2022-12-24T14:14:45.597Z,99595.75
2022-12-24T14:17:13.624Z,99601.53
2022-12-24T14:19:41.503Z,99602.94
2022-12-24T14:22:09.342Z,99612.34
2022-12-24T14:24:37.225Z,99611.91
2022-12-24T14:27:07.000Z,99610.50
2022-12-24T14:29:34.840Z,99617.69
2022-12-24T14:32:04.542Z,99629.63
2022-12-24T14:34:32.566Z,99628.59
2022-12-24T14:37:00.426Z,99634.88
2022-12-24T14:39:28.873Z,99644.56
2022-12-24T14:41:56.648Z,99648.03
2022-12-24T14:44:24.397Z,99653.31
2022-12-24T14:46:52.897Z,99668.28
2022-12-24T14:49:20.661Z,99661.94
2022-12-24T14:51:48.813Z,99675.66
2022-12-24T14:54:16.742Z,99668.91
2022-12-24T14:56:44.540Z,99674.50
2022-12-24T14:59:12.337Z,99686.28
2022-12-24T15:01:40.432Z,99680.94
2022-12-24T15:04:08.882Z,99692.31
2022-12-24T15:06:36.697Z,99689.19
2022-12-24T15:09:04.597Z,99688.00
2022-12-24T15:11:32.743Z,99689.50
2022-12-24T15:14:00.833Z,99688.09
2022-12-24T15:16:29.473Z,99694.91
2022-12-24T15:18:57.265Z,99693.88
2022-12-24T15:21:24.988Z,99702.25
2022-12-24T15:23:52.968Z,99710.63
2022-12-24T15:26:20.832Z,99708.63
2022-12-24T15:28:49.342Z,99705.75
2022-12-24T15:31:17.188Z,99706.47
2022-12-24T15:33:45.682Z,99704.19
2022-12-24T15:36:13.427Z,99713.44
2022-12-24T15:38:41.208Z,99713.44
2022-12-24T15:41:09.585Z,99715.22
2022-12-24T15:43:37.276Z,99731.94
2022-12-24T15:46:05.231Z,99730.69
2022-12-24T15:48:33.171Z,99733.09
2022-12-24T15:51:01.149Z,99743.50
2022-12-24T15:53:29.184Z,99744.22
2022-12-24T15:55:57.505Z,99739.88
2022-12-24T15:58:25.575Z,99744.59
2022-12-24T16:00:53.490Z,99744.28
2022-12-24T16:03:23.664Z,99752.63
2022-12-24T16:05:52.334Z,99756.25
2022-12-24T16:08:20.420Z,99749.22
2022-12-24T16:10:48.170Z,99751.78
2022-12-24T16:13:16.087Z,99754.44
2022-12-24T16:15:44.213Z,99765.19
2022-12-24T16:18:12.743Z,99761.72
2022-12-24T16:20:40.587Z,99759.28
2022-12-24T16:23:08.376Z,99748.03
2022-12-24T16:25:36.209Z,99751.34
2022-12-24T16:28:09.895Z,99759.09
2022-12-24T16:30:40.268Z,99758.56
2022-12-24T16:33:08.076Z,99758.94
2022-12-24T16:35:39.451Z,99764.75
2022-12-24T16:38:07.856Z,99761.47
2022-12-24T16:40:35.734Z,99753.06
2022-12-24T16:43:21.489Z,99749.91
2022-12-24T16:45:49.507Z,99753.03
2022-12-24T16:48:17.929Z,99756.16
2022-12-24T16:50:45.775Z,99766.34
2022-12-24T16:53:17.545Z,99764.88
2022-12-24T16:55:46.131Z,99773.31
2022-12-24T16:58:16.083Z,99773.69
2022-12-24T17:00:44.965Z,99783.84
2022-12-24T17:03:12.914Z,99780.69
2022-12-24T17:05:40.903Z,99777.88
2022-12-24T17:08:09.178Z,99788.25
2022-12-24T17:10:37.167Z,99787.75
2022-12-24T17:13:05.092Z,99797.03
2022-12-24T17:15:32.943Z,99803.56
2022-12-24T17:18:00.990Z,99790.75
2022-12-24T17:20:29.417Z,99796.59
2022-12-24T17:22:57.507Z,99805.28
2022-12-24T17:25:25.359Z,99808.63
2022-12-24T17:27:53.234Z,99801.22
2022-12-24T17:30:21.142Z,99810.47
2022-12-24T17:32:49.518Z,99813.56
2022-12-24T17:35:17.899Z,99805.13
2022-12-24T17:37:45.762Z,99801.94
2022-12-24T17:40:13.606Z,99807.69
2022-12-24T17:42:41.904Z,99806.44
2022-12-24T17:45:10.192Z,99805.22
2022-12-24T17:47:38.380Z,99807.50
2022-12-24T17:50:06.894Z,99810.41
2022-12-24T17:52:35.026Z,99808.72
2022-12-24T17:55:02.905Z,99814.97
2022-12-24T17:57:30.952Z,99809.66
2022-12-24T17:59:58.992Z,99806.06
2022-12-24T18:02:26.919Z,99807.03
2022-12-24T18:04:55.364Z,99799.06
2022-12-24T18:07:23.302Z,99804.56
2022-12-24T18:09:51.679Z,99803.94
2022-12-24T18:12:20.106Z,99806.81
2022-12-24T18:14:47.979Z,99806.94
2022-12-24T18:17:15.722Z,99808.75
2022-12-24T18:19:43.627Z,99815.00
2022-12-24T18:22:11.898Z,99838.00
2022-12-24T18:24:39.710Z,99839.06
2022-12-24T18:27:07.891Z,99837.28
2022-12-24T18:29:39.925Z,99840.66
2022-12-24T18:32:07.693Z,99830.16
2022-12-24T18:34:35.797Z,99826.69
2022-12-24T18:37:03.725Z,99824.22
2022-12-24T18:39:31.537Z,99822.66
2022-12-24T18:41:59.479Z,99823.50
2022-12-24T18:44:27.246Z,99826.13
2022-12-24T18:46:55.381Z,99825.94
2022-12-24T18:49:23.856Z,99828.38
2022-12-24T18:51:51.688Z,99837.59
2022-12-24T18:54:19.572Z,99834.50
2022-12-24T18:56:47.484Z,99834.03
2022-12-24T18:59:15.585Z,99830.97
2022-12-24T19:01:43.866Z,99830.66
2022-12-24T19:04:13.613Z,99831.50
2022-12-24T19:06:43.585Z,99834.16
2022-12-24T19:09:13.582Z,99840.44
2022-12-24T19:11:42.028Z,99832.56
2022-12-24T19:14:09.977Z,99823.03
2022-12-24T19:16:38.013Z,99827.59
2022-12-24T19:19:05.988Z,99824.09
2022-12-24T19:21:33.840Z,99819.66
2022-12-24T19:24:02.343Z,99821.34
2022-12-24T19:26:30.202Z,99825.69
2022-12-24T19:28:58.126Z,99827.50
2022-12-24T19:31:26.141Z,99826.66
2022-12-24T19:33:54.460Z,99831.94
2022-12-24T19:36:22.923Z,99824.94
2022-12-24T19:38:51.373Z,99838.22
2022-12-24T19:41:19.256Z,99829.41
2022-12-24T19:43:46.953Z,99832.91
2022-12-24T19:46:15.447Z,99838.28
2022-12-24T19:48:43.696Z,99833.09
2022-12-24T19:51:11.824Z,99848.06
2022-12-24T19:53:39.619Z,99840.19
2022-12-24T19:56:08.948Z,99837.44
2022-12-24T19:58:36.901Z,99829.41
2022-12-24T20:01:09.549Z,99825.59
2022-12-24T20:03:40.863Z,99835.97
2022-12-24T20:06:08.761Z,99832.03
2022-12-24T20:08:36.622Z,99835.09
2022-12-24T20:11:04.520Z,99836.66
2022-12-24T20:13:32.590Z,99842.72
2022-12-24T20:16:00.630Z,99839.94
2022-12-24T20:18:28.629Z,99834.50
2022-12-24T20:20:56.683Z,99840.44
2022-12-24T20:23:24.455Z,99834.94
2022-12-24T20:25:52.616Z,99831.84
2022-12-24T20:28:20.722Z,99839.47
2022-12-24T20:30:48.541Z,99841.63
2022-12-24T20:33:16.450Z,99831.78
2022-12-24T20:35:44.611Z,99840.47
2022-12-24T20:38:12.899Z,99834.44
2022-12-24T20:40:41.117Z,99839.84
2022-12-24T20:43:08.905Z,99846.13
2022-12-24T20:45:36.763Z,99838.25
2022-12-24T20:48:04.682Z,99841.03
2022-12-24T20:50:32.864Z,99842.94
2022-12-24T20:53:01.067Z,99844.78
2022-12-24T20:55:29.013Z,99849.13
2022-12-24T20:57:56.901Z,99841.16
2022-12-24T21:00:25.401Z,99847.19
2022-12-24T21:02:54.249Z,99861.09
2022-12-24T21:05:22.164Z,99859.06
2022-12-24T21:07:49.985Z,99865.84
2022-12-24T21:10:17.872Z,99861.03
2022-12-24T21:12:52.163Z,99866.75
2022-12-24T21:15:20.714Z,99865.44
2022-12-24T21:17:48.898Z,99864.38
2022-12-24T21:20:16.677Z,99863.28
2022-12-24T21:22:45.036Z,99871.22
2022-12-24T21:25:12.948Z,99863.50
2022-12-24T21:27:41.338Z,99865.44
2022-12-24T21:30:09.489Z,99863.75
2022-12-24T21:32:37.314Z,99877.22
2022-12-24T21:35:05.233Z,99871.19
2022-12-24T21:37:33.123Z,99879.41
2022-12-24T21:40:01.459Z,99875.25
2022-12-24T21:42:29.322Z,99869.44
2022-12-24T21:44:57.793Z,99871.34
2022-12-24T21:47:25.583Z,99867.88
2022-12-24T21:50:11.078Z,99867.75
2022-12-24T21:52:39.227Z,99863.28
2022-12-24T21:55:05.956Z,99868.50
2022-12-24T21:57:51.256Z,99866.56
2022-12-24T22:00:27.558Z,99862.94
2022-12-24T22:02:55.842Z,99862.72
2022-12-24T22:05:24.840Z,99856.44
2022-12-24T22:08:09.886Z,99852.09
2022-12-24T22:10:55.272Z,99852.09
2022-12-24T22:13:23.708Z,99843.31
2022-12-24T22:15:51.471Z,99842.34
2022-12-24T22:18:19.312Z,99835.00
2022-12-24T22:20:47.188Z,99837.53
2022-12-24T22:23:15.287Z,99839.00
2022-12-24T22:25:44.957Z,99831.63
2022-12-24T22:28:12.797Z,99837.69
2022-12-24T22:30:40.726Z,99833.13
2022-12-24T22:33:08.663Z,99832.16
2022-12-24T22:35:37.001Z,99829.50
2022-12-24T22:38:05.026Z,99832.38
2022-12-24T22:40:32.819Z,99821.03
2022-12-24T22:43:00.688Z,99826.44
2022-12-24T22:45:28.499Z,99821.97
2022-12-24T22:47:56.852Z,99816.69
2022-12-24T22:50:24.910Z,99806.06
2022-12-24T22:52:54.139Z,99803.41
2022-12-24T22:55:21.978Z,99798.94
2022-12-24T22:57:49.868Z,99803.41
2022-12-24T23:00:18.691Z,99799.78
2022-12-24T23:02:46.740Z,99789.16
2022-12-24T23:05:14.879Z,99785.78
2022-12-24T23:07:43.120Z,99782.50
2022-12-24T23:10:10.955Z,99780.06
2022-12-24T23:12:56.052Z,99781.16
2022-12-24T23:15:23.756Z,99778.72
2022-12-24T23:17:51.544Z,99792.44
2022-12-24T23:20:19.621Z,99804.38
2022-12-24T23:22:47.693Z,99799.50
2022-12-24T23:25:15.725Z,99797.19
2022-12-24T23:27:45.058Z,99796.59
2022-12-24T23:30:12.813Z,99802.84
2022-12-24T23:32:40.534Z,99807.53
2022-12-24T23:35:08.415Z,99795.34
2022-12-24T23:37:36.556Z,99795.22
2022-12-24T23:40:04.621Z,99784.72
2022-12-24T23:42:32.526Z,99788.34
2022-12-24T23:45:00.340Z,99777.00
2022-12-24T23:47:28.044Z,99793.03
2022-12-24T23:49:56.509Z,99787.97
2022-12-24T23:52:24.440Z,99802.38
2022-12-24T23:54:52.205Z,99801.75
2022-12-24T23:57:20.016Z,99795.97
2022-12-24T23:59:47.977Z,99797.13
